createdAt,value
2022-08-30T00:02:19.521Z,102237.53
2022-08-30T00:04:46.995Z,102241.19
2022-08-30T00:07:13.931Z,102248.53
2022-08-30T00:09:40.755Z,102248.63
2022-08-30T00:12:08.986Z,102251.75
2022-08-30T00:14:35.975Z,102254.09
2022-08-30T00:17:02.808Z,102253.28
2022-08-30T00:19:29.600Z,102248.19
2022-08-30T00:21:56.420Z,102254.09
2022-08-30T00:24:23.359Z,102251.47
2022-08-30T00:26:50.148Z,102250.81
2022-08-30T00:29:17.203Z,102258.00
2022-08-30T00:31:43.977Z,102259.31
2022-08-30T00:34:10.774Z,102256.53
2022-08-30T00:36:37.583Z,102257.59
2022-08-30T00:39:05.438Z,102251.06
2022-08-30T00:41:32.342Z,102261.28
2022-08-30T00:44:00.760Z,102256.78
2022-08-30T00:46:28.168Z,102260.78
2022-08-30T00:48:56.390Z,102255.31
2022-08-30T00:51:24.160Z,102256.38
2022-08-30T00:53:56.854Z,102256.38
2022-08-30T00:56:25.904Z,102259.56
2022-08-30T00:58:57.141Z,102262.91
2022-08-30T01:01:24.969Z,102253.88
2022-08-30T01:03:52.413Z,102254.75
2022-08-30T01:06:19.755Z,102262.50
2022-08-30T01:08:48.209Z,102254.56
2022-08-30T01:11:20.188Z,102261.19
2022-08-30T01:13:48.739Z,102249.53
2022-08-30T01:16:16.334Z,102256.06
2022-08-30T01:18:44.617Z,102257.03
2022-08-30T01:21:17.562Z,102259.16
2022-08-30T01:23:47.539Z,102256.69
2022-08-30T01:26:15.914Z,102259.47
2022-08-30T01:28:47.498Z,102262.09
2022-08-30T01:31:15.947Z,102259.84
2022-08-30T01:33:43.466Z,102258.50
2022-08-30T01:36:13.309Z,102255.38
2022-08-30T01:38:45.868Z,102261.50
2022-08-30T01:41:27.481Z,102267.72
2022-08-30T01:43:56.910Z,102270.41
2022-08-30T01:46:28.457Z,102275.00
2022-08-30T01:48:57.709Z,102276.22
2022-08-30T01:51:28.060Z,102275.19
2022-08-30T01:53:55.231Z,102268.69
2022-08-30T01:56:23.338Z,102269.44
2022-08-30T01:58:51.143Z,102272.69
2022-08-30T02:01:20.658Z,102281.16
2022-08-30T02:03:48.513Z,102282.66
2022-08-30T02:06:18.515Z,102290.00
2022-08-30T02:08:46.069Z,102272.69
2022-08-30T02:11:13.684Z,102290.00
2022-08-30T02:13:41.953Z,102285.41
2022-08-30T02:16:12.956Z,102286.88
2022-08-30T02:18:41.063Z,102294.19
2022-08-30T02:21:08.840Z,102292.66
2022-08-30T02:23:37.081Z,102298.34
2022-08-30T02:26:05.072Z,102287.63
2022-08-30T02:28:32.266Z,102286.31
2022-08-30T02:31:00.183Z,102287.28
2022-08-30T02:33:27.453Z,102291.72
2022-08-30T02:35:54.568Z,102290.00
2022-08-30T02:38:21.852Z,102293.16
2022-08-30T02:40:49.024Z,102293.69
2022-08-30T02:43:17.270Z,102287.94
2022-08-30T02:45:44.465Z,102293.75
2022-08-30T02:48:11.433Z,102291.38
2022-08-30T02:50:47.499Z,102298.13
2022-08-30T02:53:16.451Z,102289.38
2022-08-30T02:55:44.197Z,102293.88
2022-08-30T02:58:11.964Z,102295.66
2022-08-30T03:00:39.866Z,102292.06
2022-08-30T03:03:07.539Z,102293.53
2022-08-30T03:05:35.323Z,102286.69
2022-08-30T03:08:07.955Z,102284.97
2022-08-30T03:10:35.309Z,102287.34
2022-08-30T03:13:03.448Z,102282.69
2022-08-30T03:15:30.276Z,102286.88
2022-08-30T03:17:58.545Z,102291.91
2022-08-30T03:20:25.453Z,102290.78
2022-08-30T03:22:52.821Z,102295.38
2022-08-30T03:25:23.501Z,102296.00
2022-08-30T03:27:50.903Z,102297.25
2022-08-30T03:30:19.380Z,102299.81
2022-08-30T03:32:46.282Z,102292.69
2022-08-30T03:35:14.532Z,102301.81
2022-08-30T03:37:41.569Z,102285.03
2022-08-30T03:40:09.755Z,102289.53
2022-08-30T03:42:37.741Z,102289.66
2022-08-30T03:45:07.884Z,102287.13
2022-08-30T03:47:34.745Z,102284.88
2022-08-30T03:50:02.323Z,102293.84
2022-08-30T03:52:29.161Z,102292.50
2022-08-30T03:54:56.031Z,102293.69
2022-08-30T03:57:24.337Z,102297.09
2022-08-30T03:59:51.832Z,102292.34
2022-08-30T04:02:19.299Z,102299.97
2022-08-30T04:04:46.820Z,102304.81
2022-08-30T04:07:13.636Z,102305.38
2022-08-30T04:09:40.752Z,102302.06
2022-08-30T04:12:07.748Z,102303.41
2022-08-30T04:14:34.539Z,102300.88
2022-08-30T04:17:01.408Z,102298.63
2022-08-30T04:19:28.235Z,102310.94
2022-08-30T04:21:55.056Z,102307.19
2022-08-30T04:24:21.853Z,102301.44
2022-08-30T04:26:48.663Z,102293.06
2022-08-30T04:29:17.704Z,102294.97
2022-08-30T04:31:45.882Z,102289.22
2022-08-30T04:34:13.976Z,102295.06
2022-08-30T04:36:40.882Z,102294.25
2022-08-30T04:39:07.840Z,102304.50
2022-08-30T04:41:37.024Z,102311.16
2022-08-30T04:44:04.163Z,102314.56
2022-08-30T04:46:31.051Z,102308.28
2022-08-30T04:48:57.996Z,102323.03
2022-08-30T04:51:25.241Z,102319.78
2022-08-30T04:53:52.100Z,102317.19
2022-08-30T04:56:24.794Z,102327.31
2022-08-30T04:58:54.693Z,102324.91
2022-08-30T05:01:25.512Z,102323.19
2022-08-30T05:03:54.308Z,102313.34
2022-08-30T05:06:23.424Z,102328.03
2022-08-30T05:08:51.884Z,102328.19
2022-08-30T05:11:19.097Z,102323.78
2022-08-30T05:13:46.245Z,102324.84
2022-08-30T05:16:17.802Z,102332.03
2022-08-30T05:18:47.291Z,102330.66
2022-08-30T05:21:17.978Z,102336.06
2022-08-30T05:23:45.790Z,102338.31
2022-08-30T05:26:22.379Z,102332.16
2022-08-30T05:28:52.375Z,102335.25
2022-08-30T05:31:25.012Z,102336.97
2022-08-30T05:33:54.048Z,102344.97
2022-08-30T05:36:23.743Z,102337.22
2022-08-30T05:38:50.940Z,102342.34
2022-08-30T05:41:23.225Z,102348.50
2022-08-30T05:43:55.094Z,102350.91
2022-08-30T05:46:22.214Z,102346.78
2022-08-30T05:48:50.030Z,102350.09
2022-08-30T05:51:20.565Z,102351.81
2022-08-30T05:53:49.435Z,102349.84
2022-08-30T05:56:19.901Z,102349.50
2022-08-30T05:58:47.116Z,102350.34
2022-08-30T06:01:33.297Z,102349.13
2022-08-30T06:04:03.934Z,102347.97
2022-08-30T06:06:35.553Z,102350.31
2022-08-30T06:09:05.915Z,102352.16
2022-08-30T06:11:34.434Z,102364.00
2022-08-30T06:14:02.292Z,102357.09
2022-08-30T06:16:29.858Z,102353.41
2022-08-30T06:18:58.329Z,102360.41
2022-08-30T06:21:31.324Z,102364.34
2022-08-30T06:23:58.427Z,102355.44
2022-08-30T06:26:26.407Z,102357.38
2022-08-30T06:28:53.332Z,102354.75
2022-08-30T06:31:22.053Z,102353.59
2022-08-30T06:33:49.464Z,102367.50
2022-08-30T06:36:19.545Z,102359.91
2022-08-30T06:38:50.351Z,102366.78
2022-08-30T06:41:20.096Z,102359.78
2022-08-30T06:43:49.227Z,102352.56
2022-08-30T06:46:19.564Z,102357.75
2022-08-30T06:48:48.404Z,102354.09
2022-08-30T06:51:20.594Z,102359.38
2022-08-30T06:53:48.950Z,102355.69
2022-08-30T06:56:16.927Z,102355.25
2022-08-30T06:58:44.739Z,102349.81
2022-08-30T07:01:18.056Z,102352.50
2022-08-30T07:03:45.112Z,102353.09
2022-08-30T07:06:12.323Z,102360.63
2022-08-30T07:08:40.486Z,102361.81
2022-08-30T07:11:08.774Z,102367.19
2022-08-30T07:13:37.102Z,102373.72
2022-08-30T07:16:14.990Z,102366.78
2022-08-30T07:18:50.805Z,102374.84
2022-08-30T07:21:32.080Z,102371.44
2022-08-30T07:24:00.075Z,102365.50
2022-08-30T07:26:33.249Z,102365.22
2022-08-30T07:29:00.717Z,102366.56
2022-08-30T07:31:27.844Z,102369.53
2022-08-30T07:33:55.054Z,102368.34
2022-08-30T07:36:22.552Z,102376.81
2022-08-30T07:38:51.086Z,102379.69
2022-08-30T07:41:24.243Z,102374.38
2022-08-30T07:43:51.124Z,102377.47
2022-08-30T07:46:19.323Z,102381.25
2022-08-30T07:48:46.783Z,102383.47
2022-08-30T07:51:18.785Z,102384.94
2022-08-30T07:53:46.446Z,102383.13
2022-08-30T07:56:13.910Z,102390.19
2022-08-30T07:58:40.934Z,102384.22
2022-08-30T08:01:09.657Z,102394.09
2022-08-30T08:03:37.683Z,102394.25
2022-08-30T08:06:05.856Z,102388.81
2022-08-30T08:08:33.184Z,102390.53
2022-08-30T08:11:09.536Z,102383.19
2022-08-30T08:13:50.646Z,102391.19
2022-08-30T08:16:26.490Z,102384.13
2022-08-30T08:18:54.181Z,102383.94
2022-08-30T08:21:22.618Z,102375.63
2022-08-30T08:23:50.070Z,102381.91
2022-08-30T08:26:17.597Z,102389.16
2022-08-30T08:28:47.017Z,102381.44
2022-08-30T08:31:20.285Z,102385.50
2022-08-30T08:33:47.595Z,102392.81
2022-08-30T08:36:15.124Z,102389.81
2022-08-30T08:38:42.096Z,102388.66
2022-08-30T08:41:15.032Z,102403.03
2022-08-30T08:43:43.125Z,102400.09
2022-08-30T08:46:23.573Z,102391.41
2022-08-30T08:49:00.355Z,102403.25
2022-08-30T08:51:50.696Z,102394.56
2022-08-30T08:54:42.380Z,102393.53
2022-08-30T08:57:13.831Z,102402.50
2022-08-30T08:59:44.836Z,102394.91
2022-08-30T09:02:39.472Z,102396.69
2022-08-30T09:05:06.649Z,102400.50
2022-08-30T09:07:38.755Z,102397.41
2022-08-30T09:10:06.551Z,102391.56
2022-08-30T09:12:33.620Z,102393.22
2022-08-30T09:15:22.840Z,102388.19
2022-08-30T09:17:55.283Z,102394.44
2022-08-30T09:20:49.352Z,102386.91
2022-08-30T09:23:16.149Z,102388.19
2022-08-30T09:25:55.269Z,102390.94
2022-08-30T09:28:26.201Z,102390.59
2022-08-30T09:31:17.272Z,102394.53
2022-08-30T09:34:15.843Z,102380.28
2022-08-30T09:36:54.183Z,102389.03
2022-08-30T09:39:31.437Z,102386.00
2022-08-30T09:42:19.369Z,102386.44
2022-08-30T09:44:46.177Z,102391.09
2022-08-30T09:47:28.983Z,102393.66
2022-08-30T09:50:10.298Z,102396.72
2022-08-30T09:52:45.868Z,102386.66
2022-08-30T09:55:21.335Z,102381.69
2022-08-30T09:57:54.104Z,102390.38
2022-08-30T10:00:23.904Z,102378.50
2022-08-30T10:03:01.352Z,102378.53
2022-08-30T10:05:34.172Z,102374.44
2022-08-30T10:08:12.995Z,102366.53
2022-08-30T10:10:54.049Z,102362.72
2022-08-30T10:13:36.057Z,102375.13
2022-08-30T10:16:20.971Z,102378.09
2022-08-30T10:19:22.664Z,102368.09
2022-08-30T10:21:58.244Z,102370.19
2022-08-30T10:24:33.710Z,102371.25
2022-08-30T10:27:16.836Z,102379.53
2022-08-30T10:29:49.498Z,102376.63
2022-08-30T10:32:35.756Z,102381.16
2022-08-30T10:35:09.069Z,102377.72
2022-08-30T10:37:44.824Z,102387.22
2022-08-30T10:40:37.140Z,102382.63
2022-08-30T10:43:13.639Z,102380.31
2022-08-30T10:45:44.933Z,102374.16
2022-08-30T10:48:21.333Z,102372.78
2022-08-30T10:50:53.613Z,102383.94
2022-08-30T10:54:09.373Z,102373.94
2022-08-30T10:56:41.259Z,102376.06
2022-08-30T10:59:08.374Z,102370.78
2022-08-30T11:02:00.841Z,102378.13
2022-08-30T11:04:33.792Z,102380.00
2022-08-30T11:07:21.235Z,102378.31
2022-08-30T11:09:50.778Z,102372.03
2022-08-30T11:12:32.986Z,102365.44
2022-08-30T11:15:13.247Z,102365.38
2022-08-30T11:17:54.545Z,102381.72
2022-08-30T11:20:42.852Z,102372.34
2022-08-30T11:23:32.725Z,102370.06
2022-08-30T11:26:20.459Z,102364.22
2022-08-30T11:28:48.369Z,102360.34
2022-08-30T11:31:18.368Z,102352.66
2022-08-30T11:33:59.130Z,102361.13
2022-08-30T11:36:37.697Z,102354.50
2022-08-30T11:39:11.523Z,102361.16
2022-08-30T11:41:47.812Z,102355.91
2022-08-30T11:44:31.314Z,102354.88
2022-08-30T11:47:22.003Z,102342.00
2022-08-30T11:50:09.759Z,102350.09
2022-08-30T11:52:48.860Z,102341.28
2022-08-30T11:55:28.332Z,102342.41
2022-08-30T11:58:30.164Z,102337.94
2022-08-30T12:01:49.794Z,102339.75
2022-08-30T12:04:15.259Z,102342.66
2022-08-30T12:06:43.221Z,102339.94
2022-08-30T12:09:33.470Z,102346.25
2022-08-30T12:12:02.374Z,102343.94
2022-08-30T12:14:48.812Z,102337.13
2022-08-30T12:17:50.899Z,102340.56
2022-08-30T12:20:43.095Z,102346.34
2022-08-30T12:23:33.736Z,102338.44
2022-08-30T12:26:18.005Z,102332.38
2022-08-30T12:28:49.191Z,102329.88
2022-08-30T12:31:24.465Z,102340.38
2022-08-30T12:34:00.777Z,102339.19
2022-08-30T12:36:40.493Z,102328.44
2022-08-30T12:39:19.839Z,102328.75
2022-08-30T12:41:46.731Z,102326.47
2022-08-30T12:44:21.513Z,102318.97
2022-08-30T12:46:57.141Z,102320.66
2022-08-30T12:49:29.839Z,102326.47
2022-08-30T12:52:16.878Z,102327.31
2022-08-30T12:54:45.327Z,102319.53
2022-08-30T12:57:34.613Z,102317.44
2022-08-30T13:00:02.604Z,102313.69
2022-08-30T13:02:53.640Z,102312.25
2022-08-30T13:05:47.870Z,102308.41
2022-08-30T13:08:45.789Z,102318.13
2022-08-30T13:11:29.412Z,102307.38
2022-08-30T13:14:30.177Z,102309.00
2022-08-30T13:17:19.586Z,102308.72
2022-08-30T13:20:12.086Z,102303.81
2022-08-30T13:22:59.724Z,102296.66
2022-08-30T13:25:27.334Z,102303.31
2022-08-30T13:27:54.194Z,102299.44
2022-08-30T13:30:21.123Z,102299.38
2022-08-30T13:32:48.029Z,102286.41
2022-08-30T13:35:14.860Z,102290.94
2022-08-30T13:37:49.984Z,102290.53
2022-08-30T13:40:20.198Z,102292.13
2022-08-30T13:42:49.074Z,102284.81
2022-08-30T13:48:05.900Z,102285.84
2022-08-30T13:50:33.391Z,102296.50
2022-08-30T13:53:00.773Z,102294.88
2022-08-30T13:55:28.337Z,102281.84
2022-08-30T13:57:56.411Z,102280.09
2022-08-30T14:00:25.284Z,102281.41
2022-08-30T14:02:57.229Z,102283.94
2022-08-30T14:05:49.375Z,102279.09
2022-08-30T14:11:11.272Z,102283.34
2022-08-30T14:14:14.770Z,102278.28
2022-08-30T14:16:28.326Z,102275.84
2022-08-30T14:18:56.280Z,102275.44
2022-08-30T14:21:24.381Z,102276.09
2022-08-30T14:23:53.093Z,102279.63
2022-08-30T14:26:32.924Z,102278.84
2022-08-30T14:29:05.400Z,102285.53
2022-08-30T14:31:37.730Z,102284.00
2022-08-30T14:34:05.503Z,102291.03
2022-08-30T14:36:34.494Z,102286.91
2022-08-30T14:39:02.984Z,102280.84
2022-08-30T14:41:38.899Z,102280.91
2022-08-30T14:44:08.327Z,102270.81
2022-08-30T14:46:37.672Z,102270.16
2022-08-30T14:49:04.591Z,102268.25
2022-08-30T14:51:34.981Z,102279.44
2022-08-30T14:54:02.147Z,102275.88
2022-08-30T14:56:29.196Z,102268.94
2022-08-30T14:59:02.886Z,102273.09
2022-08-30T15:01:31.453Z,102281.66
2022-08-30T15:04:00.628Z,102267.78
2022-08-30T15:06:28.088Z,102270.06
2022-08-30T15:08:55.813Z,102271.81
2022-08-30T15:11:27.514Z,102275.66
2022-08-30T15:13:57.603Z,102276.47
2022-08-30T15:16:30.845Z,102279.53
2022-08-30T15:19:00.123Z,102268.22
2022-08-30T15:21:39.589Z,102276.50
2022-08-30T15:24:09.235Z,102271.41
2022-08-30T15:26:36.822Z,102278.25
2022-08-30T15:29:03.856Z,102279.56
2022-08-30T15:31:31.926Z,102274.78
2022-08-30T15:33:59.217Z,102267.19
2022-08-30T15:36:28.514Z,102274.75
2022-08-30T15:38:56.322Z,102270.63
2022-08-30T15:41:24.078Z,102274.16
2022-08-30T15:43:51.638Z,102274.75
2022-08-30T15:46:32.168Z,102276.84
2022-08-30T15:49:05.270Z,102263.69
2022-08-30T15:51:41.018Z,102262.56
2022-08-30T15:54:11.591Z,102268.09
2022-08-30T15:56:39.780Z,102261.78
2022-08-30T15:59:07.326Z,102265.47
2022-08-30T16:01:37.378Z,102271.84
2022-08-30T16:04:04.418Z,102254.63
2022-08-30T16:06:37.307Z,102261.94
2022-08-30T16:09:08.244Z,102259.50
2022-08-30T16:11:36.194Z,102258.19
2022-08-30T16:14:06.405Z,102262.13
2022-08-30T16:16:34.111Z,102256.16
2022-08-30T16:19:01.808Z,102256.84
2022-08-30T16:21:31.493Z,102256.78
2022-08-30T16:24:02.054Z,102249.63
2022-08-30T16:26:34.170Z,102240.59
2022-08-30T16:29:01.832Z,102249.28
2022-08-30T16:31:30.592Z,102249.72
2022-08-30T16:34:02.613Z,102250.53
2022-08-30T16:36:31.164Z,102245.78
2022-08-30T16:38:58.658Z,102239.16
2022-08-30T16:41:25.621Z,102228.56
2022-08-30T16:43:53.912Z,102239.94
2022-08-30T16:46:27.116Z,102235.59
2022-08-30T16:48:58.211Z,102232.06
2022-08-30T16:51:28.011Z,102239.06
2022-08-30T16:54:00.719Z,102232.25
2022-08-30T16:56:29.755Z,102234.38
2022-08-30T16:59:02.586Z,102241.59
2022-08-30T17:01:34.857Z,102241.69
2022-08-30T17:04:02.618Z,102239.09
2022-08-30T17:06:29.696Z,102233.72
2022-08-30T17:08:56.948Z,102242.81
2022-08-30T17:11:24.921Z,102242.75
2022-08-30T17:13:52.564Z,102237.56
2022-08-30T17:16:27.364Z,102247.19
2022-08-30T17:18:59.745Z,102240.69
2022-08-30T17:21:29.502Z,102244.78
2022-08-30T17:24:01.680Z,102241.88
2022-08-30T17:26:37.317Z,102242.00
2022-08-30T17:29:05.226Z,102244.91
2022-08-30T17:31:32.551Z,102250.19
2022-08-30T17:34:03.218Z,102250.22
2022-08-30T17:36:32.860Z,102247.88
2022-08-30T17:39:10.353Z,102253.16
2022-08-30T17:41:40.018Z,102242.50
2022-08-30T17:44:13.058Z,102259.19
2022-08-30T17:46:40.381Z,102259.06
2022-08-30T17:49:10.496Z,102255.84
2022-08-30T17:51:40.915Z,102263.88
2022-08-30T17:54:09.591Z,102259.03
2022-08-30T17:56:36.432Z,102261.38
2022-08-30T17:59:06.008Z,102285.28
2022-08-30T18:01:33.150Z,102273.84
2022-08-30T18:04:02.039Z,102279.56
2022-08-30T18:06:34.627Z,102279.84
2022-08-30T18:09:03.694Z,102282.88
2022-08-30T18:11:36.073Z,102280.06
2022-08-30T18:14:04.021Z,102292.63
2022-08-30T18:16:33.630Z,102285.44
2022-08-30T18:19:04.070Z,102295.75
2022-08-30T18:21:31.138Z,102291.19
2022-08-30T18:23:58.410Z,102293.41
2022-08-30T18:26:27.548Z,102301.00
2022-08-30T18:28:55.572Z,102308.06
2022-08-30T18:31:22.434Z,102310.44
2022-08-30T18:33:49.687Z,102313.69
2022-08-30T18:36:17.492Z,102315.06
2022-08-30T18:38:44.746Z,102320.44
2022-08-30T18:41:17.210Z,102319.00
2022-08-30T18:43:44.932Z,102324.38
2022-08-30T18:46:15.180Z,102320.19
2022-08-30T18:48:45.217Z,102324.34
2022-08-30T18:51:17.544Z,102322.28
2022-08-30T18:53:45.794Z,102323.81
2022-08-30T18:56:12.999Z,102325.44
2022-08-30T18:58:40.448Z,102329.72
2022-08-30T19:01:12.731Z,102329.66
2022-08-30T19:03:40.533Z,102341.31
2022-08-30T19:06:11.624Z,102337.44
2022-08-30T19:08:40.256Z,102349.34
2022-08-30T19:11:08.463Z,102345.38
2022-08-30T19:13:36.659Z,102347.00
2022-08-30T19:16:07.990Z,102340.38
2022-08-30T19:18:39.339Z,102346.09
2022-08-30T19:21:06.762Z,102344.28
2022-08-30T19:23:40.749Z,102352.34
2022-08-30T19:26:07.688Z,102343.31
2022-08-30T19:28:38.461Z,102355.19
2022-08-30T19:33:52.746Z,102346.28
2022-08-30T19:36:19.539Z,102358.50
2022-08-30T19:38:46.416Z,102359.66
2022-08-30T19:41:13.432Z,102353.69
2022-08-30T19:43:40.662Z,102348.88
2022-08-30T19:46:09.065Z,102366.03
2022-08-30T19:48:42.958Z,102366.88
2022-08-30T19:51:12.472Z,102365.38
2022-08-30T19:53:41.257Z,102372.22
2022-08-30T19:56:08.480Z,102369.94
2022-08-30T19:58:35.307Z,102373.38
2022-08-30T20:01:12.915Z,102369.91
2022-08-30T20:03:40.308Z,102375.13
2022-08-30T20:06:08.927Z,102376.78
2022-08-30T20:08:36.592Z,102372.59
2022-08-30T20:11:04.407Z,102376.28
2022-08-30T20:13:33.631Z,102379.34
2022-08-30T20:16:01.321Z,102373.22
2022-08-30T20:18:28.899Z,102369.72
2022-08-30T20:20:55.979Z,102369.50
2022-08-30T20:23:26.271Z,102381.84
2022-08-30T20:25:55.425Z,102376.31
2022-08-30T20:28:24.557Z,102382.16
2022-08-30T20:30:52.855Z,102382.50
2022-08-30T20:33:21.611Z,102375.66
2022-08-30T20:35:49.751Z,102376.88
2022-08-30T20:38:21.693Z,102384.09
2022-08-30T20:40:52.205Z,102379.13
2022-08-30T20:43:21.522Z,102386.09
2022-08-30T20:45:48.629Z,102379.19
2022-08-30T20:48:16.469Z,102381.97
2022-08-30T20:50:43.797Z,102378.53
2022-08-30T20:53:10.834Z,102380.63
2022-08-30T20:55:45.753Z,102383.16
2022-08-30T20:58:13.216Z,102379.66
2022-08-30T21:00:40.503Z,102378.22
2022-08-30T21:03:26.236Z,102380.19
2022-08-30T21:05:55.597Z,102379.28
2022-08-30T21:08:22.538Z,102379.72
2022-08-30T21:10:49.772Z,102378.28
2022-08-30T21:13:17.239Z,102379.72
2022-08-30T21:15:46.086Z,102388.25
2022-08-30T21:18:14.591Z,102390.69
2022-08-30T21:20:41.876Z,102387.53
2022-08-30T21:23:09.343Z,102389.56
2022-08-30T21:25:41.222Z,102391.69
2022-08-30T21:28:08.754Z,102388.19
2022-08-30T21:30:37.234Z,102392.84
2022-08-30T21:33:05.791Z,102402.97
2022-08-30T21:35:51.382Z,102407.88
2022-08-30T21:38:20.054Z,102400.53
2022-08-30T21:40:48.435Z,102412.94
2022-08-30T21:43:16.486Z,102407.38
2022-08-30T21:45:45.047Z,102402.31
2022-08-30T21:48:13.645Z,102411.22
2022-08-30T21:50:42.795Z,102417.84
2022-08-30T21:53:10.369Z,102420.81
2022-08-30T21:55:37.403Z,102415.25
2022-08-30T21:58:04.343Z,102419.50
2022-08-30T22:00:32.070Z,102419.97
2022-08-30T22:02:58.901Z,102422.13
2022-08-30T22:05:25.857Z,102419.41
2022-08-30T22:07:52.709Z,102423.97
2022-08-30T22:10:21.114Z,102428.88
2022-08-30T22:12:48.322Z,102430.75
2022-08-30T22:15:15.577Z,102434.63
2022-08-30T22:17:43.489Z,102433.13
2022-08-30T22:20:10.762Z,102437.28
2022-08-30T22:22:45.351Z,102429.53
2022-08-30T22:25:12.349Z,102432.72
2022-08-30T22:27:39.373Z,102437.94
2022-08-30T22:30:06.812Z,102437.25
2022-08-30T22:32:33.696Z,102439.91
2022-08-30T22:35:00.578Z,102450.13
2022-08-30T22:37:27.378Z,102452.25
2022-08-30T22:39:54.190Z,102450.00
2022-08-30T22:42:20.981Z,102450.13
2022-08-30T22:44:48.400Z,102449.03
2022-08-30T22:47:15.244Z,102452.03
2022-08-30T22:49:42.057Z,102458.22
2022-08-30T22:52:09.072Z,102456.44
2022-08-30T22:54:37.114Z,102458.31
2022-08-30T22:57:04.436Z,102460.56
2022-08-30T22:59:32.536Z,102458.06
2022-08-30T23:02:00.001Z,102453.28
2022-08-30T23:04:26.972Z,102460.34
2022-08-30T23:06:53.830Z,102457.06
2022-08-30T23:09:20.692Z,102456.97
2022-08-30T23:11:47.539Z,102458.25
2022-08-30T23:14:14.430Z,102453.06
2022-08-30T23:16:41.373Z,102455.72
2022-08-30T23:19:08.272Z,102459.47
2022-08-30T23:21:35.122Z,102463.06
2022-08-30T23:24:20.422Z,102457.84
2022-08-30T23:27:07.079Z,102466.13
2022-08-30T23:29:53.386Z,102466.88
2022-08-30T23:32:39.621Z,102465.06
2022-08-30T23:35:29.139Z,102463.97
2022-08-30T23:38:21.643Z,102460.22
2022-08-30T23:41:07.055Z,102466.31
2022-08-30T23:43:52.485Z,102459.94
2022-08-30T23:46:39.420Z,102459.59
2022-08-30T23:49:24.840Z,102462.34
2022-08-30T23:52:10.279Z,102461.56
2022-08-30T23:54:57.459Z,102459.81
2022-08-30T23:57:44.829Z,102458.84
